createdAt,value
2023-04-21T00:01:49.662Z,36.60
2023-04-21T00:04:17.354Z,37.87
2023-04-21T00:06:44.948Z,36.07
2023-04-21T00:09:12.449Z,34.23
2023-04-21T00:11:39.960Z,37.00
2023-04-21T00:14:07.444Z,33.60
2023-04-21T00:16:35.091Z,35.77
2023-04-21T00:19:02.639Z,35.53
2023-04-21T00:21:30.155Z,34.27
2023-04-21T00:23:57.649Z,35.10
2023-04-21T00:26:25.181Z,35.27
2023-04-21T00:28:52.681Z,31.60
2023-04-21T00:31:20.188Z,34.97
2023-04-21T00:33:47.772Z,34.13
2023-04-21T00:36:15.309Z,32.07
2023-04-21T00:38:42.841Z,37.17
2023-04-21T00:41:10.374Z,28.87
2023-04-21T00:43:37.870Z,34.67
2023-04-21T00:46:05.489Z,35.43
2023-04-21T00:48:33.004Z,34.00
2023-04-21T00:51:00.555Z,36.93
2023-04-21T00:53:28.039Z,32.10
2023-04-21T00:55:55.586Z,28.63
2023-04-21T00:58:23.097Z,28.37
2023-04-21T01:00:50.709Z,26.03
2023-04-21T01:03:18.384Z,33.13
2023-04-21T01:05:46.018Z,30.43
2023-04-21T01:08:13.519Z,35.70
2023-04-21T01:10:41.077Z,28.10
2023-04-21T01:13:08.642Z,27.03
2023-04-21T01:15:36.244Z,34.73
2023-04-21T01:18:03.880Z,23.33
2023-04-21T01:20:31.536Z,33.33
2023-04-21T01:22:59.081Z,25.50
2023-04-21T01:25:26.635Z,32.50
2023-04-21T01:27:54.193Z,25.03
2023-04-21T01:30:21.831Z,26.37
2023-04-21T01:32:49.447Z,34.43
2023-04-21T01:35:17.115Z,35.07
2023-04-21T01:37:44.608Z,33.50
2023-04-21T01:40:12.315Z,23.93
2023-04-21T01:42:41.346Z,36.40
2023-04-21T01:45:09.083Z,26.77
2023-04-21T01:47:36.628Z,31.27
2023-04-21T01:50:04.264Z,21.70
2023-04-21T01:52:31.787Z,25.87
2023-04-21T01:54:59.471Z,26.33
2023-04-21T01:57:26.952Z,21.87
2023-04-21T01:59:54.525Z,26.30
2023-04-21T02:02:22.206Z,35.70
2023-04-21T02:04:49.979Z,32.43
2023-04-21T02:07:17.480Z,29.03
2023-04-21T02:09:45.127Z,30.93
2023-04-21T02:12:12.703Z,32.53
2023-04-21T02:14:40.350Z,24.63
2023-04-21T02:17:07.847Z,36.30
2023-04-21T02:19:35.422Z,35.80
2023-04-21T02:22:02.920Z,33.70
2023-04-21T02:24:30.488Z,28.90
2023-04-21T02:26:57.979Z,33.23
2023-04-21T02:29:25.585Z,37.17
2023-04-21T02:32:03.058Z,32.20
2023-04-21T02:34:38.132Z,29.00
2023-04-21T02:37:05.651Z,37.80
2023-04-21T02:39:33.164Z,31.37
2023-04-21T02:42:00.682Z,33.90
2023-04-21T02:44:28.229Z,32.13
2023-04-21T02:46:55.829Z,33.03
2023-04-21T02:49:23.468Z,30.17
2023-04-21T02:51:50.978Z,24.03
2023-04-21T02:54:18.509Z,30.63
2023-04-21T02:56:45.987Z,33.97
2023-04-21T02:59:13.587Z,32.97
2023-04-21T03:01:41.071Z,34.77
2023-04-21T03:04:08.805Z,36.67
2023-04-21T03:06:36.387Z,27.90
2023-04-21T03:09:04.031Z,34.00
2023-04-21T03:11:31.541Z,33.27
2023-04-21T03:13:59.063Z,34.87
2023-04-21T03:16:26.585Z,34.43
2023-04-21T03:18:54.177Z,34.37
2023-04-21T03:21:21.777Z,29.03
2023-04-21T03:23:49.327Z,33.37
2023-04-21T03:26:16.845Z,35.80
2023-04-21T03:28:44.539Z,34.67
2023-04-21T03:31:12.040Z,33.87
2023-04-21T03:33:39.615Z,35.10
2023-04-21T03:36:07.329Z,35.50
2023-04-21T03:38:34.927Z,35.13
2023-04-21T03:41:04.207Z,37.40
2023-04-21T03:43:31.769Z,35.97
2023-04-21T03:45:59.315Z,36.50
2023-04-21T03:48:28.358Z,34.47
2023-04-21T03:50:55.863Z,35.07
2023-04-21T03:53:23.412Z,37.10
2023-04-21T03:55:51.269Z,35.37
2023-04-21T03:58:18.776Z,33.70
2023-04-21T04:00:46.393Z,33.70
2023-04-21T04:03:14.057Z,35.03
2023-04-21T04:05:41.792Z,34.93
2023-04-21T04:08:09.507Z,36.63
2023-04-21T04:10:37.043Z,35.30
2023-04-21T04:13:04.586Z,37.80
2023-04-21T04:15:32.112Z,37.10
2023-04-21T04:17:59.658Z,34.93
2023-04-21T04:20:27.258Z,34.27
2023-04-21T04:22:54.778Z,34.70
2023-04-21T04:25:22.379Z,34.67
2023-04-21T04:27:53.287Z,35.27
2023-04-21T04:30:22.566Z,34.83
2023-04-21T04:32:50.582Z,34.17
2023-04-21T04:35:18.081Z,32.63
2023-04-21T04:37:45.616Z,35.87
2023-04-21T04:40:13.183Z,34.53
2023-04-21T04:42:40.647Z,36.67
2023-04-21T04:45:11.135Z,37.70
2023-04-21T04:47:38.769Z,32.37
2023-04-21T04:50:06.957Z,34.63
2023-04-21T04:52:34.530Z,33.43
2023-04-21T04:55:02.054Z,35.47
2023-04-21T04:57:29.535Z,34.40
2023-04-21T04:59:57.326Z,35.20
2023-04-21T05:02:25.056Z,33.00
2023-04-21T05:04:52.933Z,33.40
2023-04-21T05:07:20.534Z,34.27
2023-04-21T05:09:48.048Z,35.43
2023-04-21T05:12:15.505Z,34.97
2023-04-21T05:14:43.011Z,35.77
2023-04-21T05:17:10.534Z,37.83
2023-04-21T05:19:38.133Z,34.20
2023-04-21T05:22:05.702Z,43.38
2023-04-21T05:24:36.311Z,36.30
2023-04-21T05:27:04.579Z,30.77
2023-04-21T05:29:32.114Z,29.30
2023-04-21T05:31:59.700Z,27.67
2023-04-21T05:34:27.164Z,27.30
2023-04-21T05:36:54.660Z,24.60
2023-04-21T05:39:22.173Z,27.97
2023-04-21T05:41:49.724Z,27.70
2023-04-21T05:44:18.045Z,27.70
2023-04-21T05:46:45.758Z,29.27
2023-04-21T05:49:13.389Z,26.43
2023-04-21T05:51:40.955Z,28.77
2023-04-21T05:54:08.444Z,29.93
2023-04-21T05:56:36.029Z,29.00
2023-04-21T05:59:03.532Z,30.97
2023-04-21T06:01:31.035Z,31.63
2023-04-21T06:03:58.713Z,30.63
2023-04-21T06:06:26.722Z,29.83
2023-04-21T06:08:54.217Z,29.90
2023-04-21T06:11:21.744Z,27.87
2023-04-21T06:13:49.229Z,27.53
2023-04-21T06:16:16.853Z,27.37
2023-04-21T06:18:44.409Z,28.90
2023-04-21T06:21:11.967Z,30.20
2023-04-21T06:23:39.465Z,28.07
2023-04-21T06:26:07.822Z,27.97
2023-04-21T06:28:36.063Z,27.30
2023-04-21T06:31:07.083Z,28.87
2023-04-21T06:33:36.521Z,26.57
2023-04-21T06:36:04.131Z,27.43
2023-04-21T06:38:31.670Z,29.67
2023-04-21T06:40:59.319Z,29.47
2023-04-21T06:43:26.860Z,27.97
2023-04-21T06:45:54.388Z,29.33
2023-04-21T06:48:22.005Z,26.23
2023-04-21T06:50:49.503Z,28.07
2023-04-21T06:53:17.053Z,28.50
2023-04-21T06:55:44.578Z,28.07
2023-04-21T06:58:12.133Z,27.97
2023-04-21T07:00:39.706Z,27.00
2023-04-21T07:03:07.443Z,26.57
2023-04-21T07:05:35.014Z,27.87
2023-04-21T07:08:02.644Z,25.73
2023-04-21T07:10:30.191Z,25.60
2023-04-21T07:12:57.743Z,26.73
2023-04-21T07:15:25.295Z,26.63
2023-04-21T07:17:53.009Z,26.00
2023-04-21T07:20:20.578Z,26.23
2023-04-21T07:22:50.075Z,26.23
2023-04-21T07:25:17.636Z,27.53
2023-04-21T07:27:45.153Z,25.30
2023-04-21T07:30:12.968Z,25.43
2023-04-21T07:32:40.601Z,25.43
2023-04-21T07:35:08.344Z,25.70
2023-04-21T07:37:35.852Z,24.80
2023-04-21T07:40:03.419Z,24.73
2023-04-21T07:42:30.952Z,25.83
2023-04-21T07:44:58.550Z,24.97
2023-04-21T07:47:26.119Z,24.07
2023-04-21T07:49:53.705Z,25.50
2023-04-21T07:52:21.188Z,24.07
2023-04-21T07:54:48.744Z,26.63
2023-04-21T07:57:16.226Z,25.17
2023-04-21T07:59:43.862Z,25.07
2023-04-21T08:02:11.424Z,24.10
2023-04-21T08:04:39.610Z,25.37
2023-04-21T08:07:07.480Z,25.73
2023-04-21T08:09:35.397Z,25.30
2023-04-21T08:12:02.943Z,24.80
2023-04-21T08:14:30.530Z,24.67
2023-04-21T08:16:58.241Z,25.37
2023-04-21T08:19:26.145Z,24.87
2023-04-21T08:21:53.818Z,23.27
2023-04-21T08:24:21.559Z,23.23
2023-04-21T08:26:49.253Z,23.23
2023-04-21T08:29:16.815Z,21.27
2023-04-21T08:31:44.463Z,21.53
2023-04-21T08:34:12.090Z,19.13
2023-04-21T08:36:39.659Z,22.00
2023-04-21T08:39:07.273Z,20.73
2023-04-21T08:41:35.296Z,20.70
2023-04-21T08:44:04.169Z,21.97
2023-04-21T08:46:33.055Z,21.73
2023-04-21T08:49:01.558Z,20.87
2023-04-21T08:51:29.442Z,19.87
2023-04-21T08:53:57.057Z,20.30
2023-04-21T08:56:25.261Z,21.67
2023-04-21T08:58:52.952Z,21.93
2023-04-21T09:01:20.610Z,21.63
2023-04-21T09:03:48.364Z,22.47
2023-04-21T09:06:16.631Z,21.20
2023-04-21T09:08:45.527Z,19.93
2023-04-21T09:11:16.174Z,21.60
2023-04-21T09:13:44.041Z,20.47
2023-04-21T09:16:19.686Z,20.27
2023-04-21T09:18:47.286Z,19.10
2023-04-21T09:21:16.315Z,19.13
2023-04-21T09:23:53.510Z,18.53
2023-04-21T09:26:21.628Z,17.83
2023-04-21T09:28:50.057Z,19.50
2023-04-21T09:31:18.952Z,20.10
2023-04-21T09:34:09.411Z,18.30
2023-04-21T09:36:36.955Z,17.77
2023-04-21T09:41:35.446Z,17.87
2023-04-21T09:44:02.976Z,16.73
2023-04-21T09:46:32.984Z,15.20
2023-04-21T09:49:04.132Z,15.23
2023-04-21T09:51:56.206Z,17.00
2023-04-21T09:56:53.642Z,17.17
2023-04-21T09:59:25.649Z,17.80
2023-04-21T10:01:54.565Z,17.07
2023-04-21T10:04:22.832Z,17.40
2023-04-21T10:06:51.885Z,17.40
2023-04-21T10:09:21.938Z,17.80
2023-04-21T10:11:49.672Z,17.23
2023-04-21T10:14:17.477Z,15.53
2023-04-21T10:16:56.299Z,17.50
2023-04-21T10:19:25.026Z,14.00
2023-04-21T10:21:52.603Z,17.53
2023-04-21T10:24:20.291Z,18.37
2023-04-21T10:26:52.484Z,17.70
2023-04-21T10:29:43.662Z,18.20
2023-04-21T10:32:31.629Z,17.30
2023-04-21T10:34:59.210Z,15.77
2023-04-21T10:37:26.712Z,17.33
2023-04-21T10:39:55.342Z,19.05
2023-04-21T10:42:26.883Z,18.17
2023-04-21T10:44:57.337Z,18.23
2023-04-21T10:47:30.622Z,15.63
2023-04-21T10:49:59.087Z,14.73
2023-04-21T10:52:33.449Z,15.30
2023-04-21T10:55:07.975Z,14.30
2023-04-21T10:57:37.833Z,15.93
2023-04-21T11:00:06.060Z,14.70
2023-04-21T11:02:36.514Z,15.70
2023-04-21T11:05:06.278Z,11.90
2023-04-21T11:07:33.820Z,15.70
2023-04-21T11:10:02.687Z,15.57
2023-04-21T11:12:34.303Z,15.47
2023-04-21T11:15:04.297Z,14.10
2023-04-21T11:17:32.315Z,14.90
2023-04-21T11:19:59.885Z,15.13
2023-04-21T11:22:27.599Z,14.47
2023-04-21T11:24:55.951Z,12.97
2023-04-21T11:27:23.728Z,11.97
2023-04-21T11:29:51.697Z,14.43
2023-04-21T11:32:19.322Z,15.77
2023-04-21T11:34:46.857Z,14.20
2023-04-21T11:37:25.468Z,11.93
2023-04-21T11:39:59.870Z,16.80
2023-04-21T11:42:27.773Z,14.37
2023-04-21T11:44:55.974Z,14.03
2023-04-21T11:47:24.360Z,12.67
2023-04-21T11:49:53.407Z,13.93
2023-04-21T11:52:39.252Z,13.23
2023-04-21T11:55:07.786Z,15.33
2023-04-21T11:57:35.329Z,14.27
2023-04-21T12:00:04.476Z,13.63
2023-04-21T12:02:32.930Z,16.90
2023-04-21T12:05:07.952Z,14.77
2023-04-21T12:07:36.699Z,12.37
2023-04-21T12:10:11.774Z,12.90
2023-04-21T12:12:39.942Z,16.60
2023-04-21T12:15:08.054Z,12.83
2023-04-21T12:17:45.259Z,13.97
2023-04-21T12:20:13.543Z,14.23
2023-04-21T12:22:41.135Z,14.60
2023-04-21T12:25:08.823Z,16.83
2023-04-21T12:27:36.432Z,14.63
2023-04-21T12:30:04.333Z,15.13
2023-04-21T12:32:31.927Z,12.53
2023-04-21T12:34:59.474Z,12.73
2023-04-21T12:37:27.035Z,16.37
2023-04-21T12:39:54.604Z,14.57
2023-04-21T12:42:22.152Z,13.53
2023-04-21T12:44:49.742Z,10.83
2023-04-21T12:47:17.410Z,13.17
2023-04-21T12:49:44.990Z,11.07
2023-04-21T12:52:12.518Z,10.40
2023-04-21T12:54:40.060Z,14.10
2023-04-21T12:57:07.632Z,11.30
2023-04-21T12:59:35.209Z,12.43
2023-04-21T13:02:02.844Z,11.47
2023-04-21T13:04:30.598Z,12.63
2023-04-21T13:06:58.350Z,13.80
2023-04-21T13:09:25.901Z,11.20
2023-04-21T13:11:53.399Z,14.10
2023-04-21T13:14:20.973Z,12.37
2023-04-21T13:16:48.614Z,11.57
2023-04-21T13:19:16.199Z,13.23
2023-04-21T13:21:43.744Z,11.87
2023-04-21T13:24:14.344Z,10.03
2023-04-21T13:26:42.304Z,9.50
2023-04-21T13:29:09.831Z,9.17
2023-04-21T13:31:37.562Z,8.77
2023-04-21T13:34:05.252Z,7.73
2023-04-21T13:36:32.811Z,8.10
2023-04-21T13:39:00.374Z,7.53
2023-04-21T13:41:27.948Z,8.60
2023-04-21T13:43:55.516Z,8.80
2023-04-21T13:46:23.290Z,8.63
2023-04-21T13:48:50.862Z,8.73
2023-04-21T13:51:19.245Z,9.60
2023-04-21T13:53:46.920Z,9.10
2023-04-21T13:56:14.479Z,7.97
2023-04-21T13:58:42.316Z,9.63
2023-04-21T14:01:09.955Z,7.63
2023-04-21T14:03:37.730Z,8.27
2023-04-21T14:06:05.610Z,7.57
2023-04-21T14:08:33.261Z,7.87
2023-04-21T14:11:01.084Z,7.37
2023-04-21T14:16:01.120Z,7.37
2023-04-21T14:18:28.670Z,7.50
2023-04-21T14:20:56.198Z,6.37
2023-04-21T14:23:23.778Z,6.50
2023-04-21T14:25:53.018Z,7.20
2023-04-21T14:28:21.985Z,6.00
2023-04-21T14:30:49.476Z,5.80
2023-04-21T14:33:17.072Z,6.10
2023-04-21T14:35:44.734Z,6.30
2023-04-21T14:38:12.440Z,5.87
2023-04-21T14:40:39.957Z,6.17
2023-04-21T14:43:07.611Z,5.73
2023-04-21T14:45:35.338Z,6.60
2023-04-21T14:48:03.125Z,4.80
2023-04-21T14:50:30.714Z,5.40
2023-04-21T14:52:58.266Z,5.73
2023-04-21T14:55:25.784Z,6.23
2023-04-21T14:57:53.384Z,6.63
2023-04-21T15:00:21.071Z,6.20
2023-04-21T15:02:48.723Z,5.80
2023-04-21T15:05:16.363Z,6.53
2023-04-21T15:07:44.023Z,5.60
2023-04-21T15:10:11.793Z,5.03
2023-04-21T15:12:39.433Z,5.30
2023-04-21T15:15:07.275Z,4.70
2023-04-21T15:17:34.852Z,5.93
2023-04-21T15:20:02.448Z,5.70
2023-04-21T15:22:30.095Z,7.27
2023-04-21T15:24:57.842Z,5.97
2023-04-21T15:27:25.402Z,5.17
2023-04-21T15:29:52.983Z,4.40
2023-04-21T15:32:20.754Z,4.50
2023-04-21T15:34:48.299Z,4.30
2023-04-21T15:37:15.864Z,4.10
2023-04-21T15:39:43.512Z,4.67
2023-04-21T15:42:11.144Z,5.07
2023-04-21T15:44:38.712Z,5.40
2023-04-21T15:47:06.673Z,4.87
2023-04-21T15:49:34.501Z,5.27
2023-04-21T15:52:02.936Z,4.30
2023-04-21T15:54:30.519Z,4.80
2023-04-21T15:56:58.162Z,4.00
2023-04-21T15:59:26.347Z,4.50
2023-04-21T16:01:54.207Z,4.37
2023-04-21T16:04:21.962Z,4.10
2023-04-21T16:06:49.993Z,4.27
2023-04-21T16:09:17.673Z,3.93
2023-04-21T16:11:45.523Z,4.43
2023-04-21T16:14:13.272Z,4.33
2023-04-21T16:16:40.908Z,4.73
2023-04-21T16:19:08.436Z,4.40
2023-04-21T16:21:36.963Z,5.17
2023-04-21T16:24:07.371Z,5.27
2023-04-21T16:26:36.199Z,4.97
2023-04-21T16:29:05.101Z,6.50
2023-04-21T16:31:32.801Z,4.93
2023-04-21T16:34:00.537Z,6.50
2023-04-21T16:36:28.490Z,1.73
2023-04-21T16:38:56.450Z,1.60
2023-04-21T16:41:24.249Z,2.00
2023-04-21T16:43:52.405Z,2.30
2023-04-21T16:46:20.106Z,1.90
2023-04-21T16:48:47.776Z,2.13
2023-04-21T16:51:15.463Z,1.90
2023-04-21T16:53:43.063Z,1.90
2023-04-21T16:56:10.689Z,1.40
2023-04-21T16:58:38.244Z,1.73
2023-04-21T17:01:05.925Z,1.70
2023-04-21T17:03:33.809Z,1.67
2023-04-21T17:06:01.569Z,1.97
2023-04-21T17:08:29.062Z,1.90
2023-04-21T17:10:56.688Z,1.90
2023-04-21T17:13:24.278Z,1.60
2023-04-21T17:15:51.837Z,1.97
2023-04-21T17:18:19.666Z,2.43
2023-04-21T17:20:47.292Z,2.03
2023-04-21T17:23:14.817Z,1.80
2023-04-21T17:25:42.467Z,1.70
2023-04-21T17:28:10.084Z,1.60
2023-04-21T17:30:38.002Z,1.80
2023-04-21T17:33:16.283Z,1.57
2023-04-21T17:35:59.781Z,1.50
2023-04-21T17:38:29.741Z,1.70
2023-04-21T17:40:57.279Z,1.70
2023-04-21T17:43:24.880Z,1.70
2023-04-21T17:45:52.546Z,1.67
2023-04-21T17:48:20.748Z,1.67
2023-04-21T17:50:48.332Z,1.70
2023-04-21T17:53:15.926Z,1.83
2023-04-21T17:55:43.582Z,1.60
2023-04-21T17:58:12.517Z,1.80
2023-04-21T18:00:40.281Z,1.67
2023-04-21T18:03:08.074Z,1.90
2023-04-21T18:05:35.999Z,1.80
2023-04-21T18:08:03.831Z,1.80
2023-04-21T18:10:31.363Z,1.87
2023-04-21T18:12:59.009Z,2.10
2023-04-21T18:15:26.527Z,1.80
2023-04-21T18:17:54.250Z,2.00
2023-04-21T18:20:21.887Z,2.30
2023-04-21T18:22:51.694Z,2.00
2023-04-21T18:25:30.710Z,2.37
2023-04-21T18:28:07.170Z,1.97
2023-04-21T18:30:34.770Z,2.03
2023-04-21T18:33:02.477Z,2.10
2023-04-21T18:35:30.159Z,2.27
2023-04-21T18:37:57.751Z,2.00
2023-04-21T18:40:25.282Z,2.20
2023-04-21T18:42:53.051Z,2.00
2023-04-21T18:45:20.599Z,2.03
2023-04-21T18:47:48.186Z,2.50
2023-04-21T18:50:15.741Z,2.30
2023-04-21T18:52:43.241Z,2.60
2023-04-21T18:55:10.771Z,2.70
2023-04-21T18:57:38.378Z,2.93
2023-04-21T19:00:06.136Z,2.87
2023-04-21T19:02:34.081Z,3.30
2023-04-21T19:05:01.727Z,3.90
2023-04-21T19:07:29.288Z,3.73
2023-04-21T19:09:56.795Z,3.20
2023-04-21T19:12:24.381Z,2.93
2023-04-21T19:14:52.349Z,3.40
2023-04-21T19:17:20.303Z,3.40
2023-04-21T19:19:47.842Z,3.67
2023-04-21T19:22:15.404Z,3.87
2023-04-21T19:24:42.896Z,3.00
2023-04-21T19:27:10.426Z,2.40
2023-04-21T19:29:37.961Z,2.40
2023-04-21T19:32:05.590Z,1.87
2023-04-21T19:34:33.197Z,2.10
2023-04-21T19:37:01.082Z,1.50
2023-04-21T19:39:28.682Z,2.17
2023-04-21T19:41:56.211Z,1.97
2023-04-21T19:44:23.720Z,1.43
2023-04-21T19:46:51.291Z,1.87
2023-04-21T19:49:18.855Z,2.23
2023-04-21T19:51:46.405Z,1.40
2023-04-21T19:54:13.910Z,1.80
2023-04-21T19:56:41.479Z,2.10
2023-04-21T19:59:08.978Z,1.43
2023-04-21T20:01:36.917Z,1.23
2023-04-21T20:04:04.665Z,1.00
2023-04-21T20:06:32.910Z,1.20
2023-04-21T20:09:00.421Z,1.17
2023-04-21T20:11:29.209Z,1.53
2023-04-21T20:13:56.904Z,1.10
2023-04-21T20:16:24.760Z,1.40
2023-04-21T20:18:52.344Z,1.27
2023-04-21T20:21:19.931Z,1.30
2023-04-21T20:23:47.421Z,1.60
2023-04-21T20:26:14.975Z,1.30
2023-04-21T20:28:42.524Z,1.53
2023-04-21T20:31:10.141Z,1.60
2023-04-21T20:33:37.691Z,1.60
2023-04-21T20:36:05.391Z,1.83
2023-04-21T20:38:32.918Z,1.90
2023-04-21T20:41:00.553Z,1.70
2023-04-21T20:43:28.630Z,1.73
2023-04-21T20:45:56.206Z,1.90
2023-04-21T20:48:23.683Z,2.43
2023-04-21T20:50:51.501Z,2.03
2023-04-21T20:53:19.116Z,1.83
2023-04-21T20:55:47.085Z,1.93
2023-04-21T20:58:14.616Z,2.00
2023-04-21T21:00:42.349Z,1.97
2023-04-21T21:03:10.297Z,2.00
2023-04-21T21:05:39.174Z,2.33
2023-04-21T21:08:07.735Z,2.10
2023-04-21T21:10:35.784Z,2.50
2023-04-21T21:13:03.460Z,2.57
2023-04-21T21:15:31.280Z,2.33
2023-04-21T21:17:59.021Z,2.43
2023-04-21T21:20:26.713Z,2.37
2023-04-21T21:22:54.446Z,2.20
2023-04-21T21:25:21.966Z,2.23
2023-04-21T21:27:49.621Z,2.40
2023-04-21T21:30:17.156Z,2.50
2023-04-21T21:32:44.778Z,2.27
2023-04-21T21:35:12.258Z,2.57
2023-04-21T21:37:40.024Z,2.90
2023-04-21T21:40:08.008Z,2.70
2023-04-21T21:42:35.740Z,2.60
2023-04-21T21:45:03.218Z,2.53
2023-04-21T21:47:30.876Z,2.77
2023-04-21T21:49:58.423Z,2.50
2023-04-21T21:52:29.463Z,3.17
2023-04-21T21:54:57.062Z,3.10
2023-04-21T21:57:24.801Z,3.03
2023-04-21T21:59:52.343Z,3.47
2023-04-21T22:02:19.948Z,3.20
2023-04-21T22:04:47.657Z,3.30
2023-04-21T22:07:15.192Z,3.30
2023-04-21T22:09:42.716Z,3.60
2023-04-21T22:12:10.197Z,3.33
2023-04-21T22:14:38.538Z,4.50
2023-04-21T22:17:06.070Z,3.50
2023-04-21T22:19:33.663Z,3.93
2023-04-21T22:22:01.248Z,3.47
2023-04-21T22:24:28.818Z,3.63
2023-04-21T22:26:56.318Z,4.10
2023-04-21T22:29:23.908Z,3.60
2023-04-21T22:31:51.563Z,3.83
2023-04-21T22:34:19.264Z,3.87
2023-04-21T22:36:46.795Z,4.33
2023-04-21T22:39:14.371Z,4.30
2023-04-21T22:41:41.952Z,4.10
2023-04-21T22:44:09.688Z,3.83
2023-04-21T22:46:37.214Z,4.73
2023-04-21T22:49:04.812Z,4.00
2023-04-21T22:51:32.508Z,4.27
2023-04-21T22:54:00.831Z,4.80
2023-04-21T22:56:29.149Z,4.23
2023-04-21T22:58:56.726Z,4.37
2023-04-21T23:01:24.294Z,3.90
2023-04-21T23:03:52.017Z,4.67
2023-04-21T23:06:19.627Z,4.90
2023-04-21T23:08:47.142Z,4.60
2023-04-21T23:11:14.902Z,4.30
2023-04-21T23:13:42.437Z,4.73
2023-04-21T23:16:10.027Z,5.10
2023-04-21T23:18:37.720Z,4.40
2023-04-21T23:21:05.251Z,5.17
2023-04-21T23:23:32.832Z,5.27
2023-04-21T23:26:00.354Z,5.27
2023-04-21T23:28:27.876Z,4.90
2023-04-21T23:30:55.409Z,5.97
2023-04-21T23:33:23.127Z,6.30
2023-04-21T23:35:50.674Z,6.27
2023-04-21T23:38:18.263Z,5.40
2023-04-21T23:40:45.796Z,5.70
2023-04-21T23:43:13.353Z,5.57
2023-04-21T23:45:40.942Z,7.03
2023-04-21T23:48:08.579Z,6.10
2023-04-21T23:50:36.211Z,6.67
2023-04-21T23:53:03.803Z,6.23
2023-04-21T23:55:31.401Z,6.83
2023-04-21T23:57:58.874Z,7.30
